createdAt,value
2019-05-03T00:02:28.016Z,56.92
2019-05-03T00:05:27.156Z,57.44
2019-05-03T00:08:17.280Z,57.01
2019-05-03T00:11:07.794Z,57.68
2019-05-03T00:13:58.263Z,56.79
2019-05-03T00:16:52.105Z,56.41
2019-05-03T00:19:42.314Z,57.94
2019-05-03T00:22:33.756Z,58.68
2019-05-03T00:25:24.133Z,59.51
2019-05-03T00:28:14.788Z,59.54
2019-05-03T00:31:05.465Z,59.59
2019-05-03T00:34:02.269Z,61.19
2019-05-03T00:36:55.808Z,61.18
2019-05-03T00:40:06.412Z,59.94
2019-05-03T00:42:56.787Z,61.20
2019-05-03T00:45:46.973Z,62.50
2019-05-03T00:48:37.195Z,64.12
2019-05-03T00:51:27.405Z,66.30
2019-05-03T00:54:17.858Z,67.11
2019-05-03T00:57:08.523Z,67.92
2019-05-03T00:59:59.030Z,67.04
2019-05-03T01:02:49.392Z,65.41
2019-05-03T01:05:39.756Z,64.67
2019-05-03T01:08:30.037Z,64.25
2019-05-03T01:11:22.266Z,64.46
2019-05-03T01:14:13.258Z,63.85
2019-05-03T01:17:03.680Z,64.22
2019-05-03T01:19:54.238Z,64.75
2019-05-03T01:22:44.685Z,65.79
2019-05-03T01:25:35.598Z,66.04
2019-05-03T01:28:26.015Z,65.44
2019-05-03T01:31:18.972Z,66.10
2019-05-03T01:34:09.208Z,65.64
2019-05-03T01:36:59.937Z,65.36
2019-05-03T01:39:52.438Z,67.09
2019-05-03T01:42:43.029Z,66.53
2019-05-03T01:45:33.673Z,66.54
2019-05-03T01:48:41.651Z,66.57
2019-05-03T01:51:52.606Z,66.90
2019-05-03T01:54:43.239Z,66.94
2019-05-03T01:57:33.509Z,68.35
2019-05-03T02:00:27.204Z,69.04
2019-05-03T02:03:24.695Z,70.56
2019-05-03T02:06:15.286Z,73.10
2019-05-03T02:09:08.511Z,76.13
2019-05-03T02:11:58.738Z,77.86
2019-05-03T02:14:49.176Z,77.75
2019-05-03T02:17:39.756Z,78.08
2019-05-03T02:20:32.381Z,79.28
2019-05-03T02:23:23.455Z,79.88
2019-05-03T02:26:13.932Z,80.32
2019-05-03T02:29:07.165Z,82.84
2019-05-03T02:31:57.666Z,82.27
2019-05-03T02:34:48.335Z,81.79
2019-05-03T02:37:43.721Z,81.97
2019-05-03T02:40:33.916Z,83.06
2019-05-03T02:43:28.568Z,82.50
2019-05-03T02:46:36.627Z,82.94
2019-05-03T02:49:37.576Z,83.15
2019-05-03T02:52:37.902Z,81.50
2019-05-03T02:55:28.317Z,81.09
2019-05-03T02:58:18.757Z,79.80
2019-05-03T03:01:09.282Z,78.75
2019-05-03T03:04:00.600Z,77.01
2019-05-03T03:06:50.857Z,76.47
2019-05-03T03:09:41.139Z,76.79
2019-05-03T03:12:31.708Z,76.41
2019-05-03T03:15:22.066Z,76.71
2019-05-03T03:18:12.517Z,76.88
2019-05-03T03:21:02.691Z,77.93
2019-05-03T03:24:06.424Z,80.85
2019-05-03T03:26:57.404Z,83.73
2019-05-03T03:29:48.976Z,87.29
2019-05-03T03:32:39.922Z,91.54
2019-05-03T03:35:32.198Z,93.15
2019-05-03T03:38:25.897Z,92.89
2019-05-03T03:41:16.293Z,94.43
2019-05-03T03:44:06.751Z,95.75
2019-05-03T03:46:57.310Z,96.20
2019-05-03T03:49:47.778Z,95.77
2019-05-03T03:52:38.483Z,97.00
2019-05-03T03:55:29.440Z,99.80
2019-05-03T03:58:22.831Z,99.89
2019-05-03T04:01:15.520Z,97.84
2019-05-03T04:04:05.586Z,92.78
2019-05-03T04:07:01.016Z,85.07
2019-05-03T04:09:48.422Z,78.56
2019-05-03T04:12:39.355Z,69.62
2019-05-03T04:15:40.334Z,62.03
2019-05-03T04:18:49.967Z,54.91
2019-05-03T04:21:40.501Z,49.70
2019-05-03T04:24:31.441Z,46.67
2019-05-03T04:27:24.390Z,43.47
2019-05-03T04:30:16.437Z,40.45
2019-05-03T04:33:06.920Z,38.52
2019-05-03T04:35:57.895Z,37.13
2019-05-03T04:38:48.916Z,35.02
2019-05-03T04:41:39.677Z,33.97
2019-05-03T04:44:30.564Z,32.80
2019-05-03T04:47:21.434Z,32.15
2019-05-03T04:50:12.582Z,32.28
2019-05-03T04:53:05.654Z,31.43
2019-05-03T04:55:56.528Z,30.81
2019-05-03T04:58:47.790Z,29.56
2019-05-03T05:01:38.951Z,27.09
2019-05-03T05:04:31.372Z,24.76
2019-05-03T05:07:22.379Z,23.33
2019-05-03T05:10:15.306Z,22.97
2019-05-03T05:13:06.813Z,21.60
2019-05-03T05:15:57.946Z,21.60
2019-05-03T05:18:55.999Z,20.15
2019-05-03T05:21:50.430Z,20.15
2019-05-03T05:24:41.122Z,18.64
2019-05-03T05:27:54.647Z,17.68
2019-05-03T05:30:44.457Z,16.98
2019-05-03T05:33:35.495Z,16.21
2019-05-03T05:36:27.206Z,15.80
2019-05-03T05:39:18.874Z,16.89
2019-05-03T05:42:09.720Z,16.51
2019-05-03T05:45:00.438Z,16.12
2019-05-03T05:48:05.469Z,14.73
2019-05-03T05:50:56.268Z,14.54
2019-05-03T05:53:47.037Z,14.02
2019-05-03T05:56:49.398Z,14.01
2019-05-03T05:59:49.010Z,15.16
2019-05-03T06:02:39.824Z,14.34
2019-05-03T06:05:30.705Z,14.96
2019-05-03T06:08:46.691Z,15.41
2019-05-03T06:11:51.211Z,14.21
2019-05-03T06:14:55.183Z,14.64
2019-05-03T06:17:57.073Z,15.05
2019-05-03T06:21:04.622Z,13.62
2019-05-03T06:24:00.036Z,12.77
2019-05-03T06:26:58.065Z,12.30
2019-05-03T06:29:50.144Z,12.98
2019-05-03T06:32:41.908Z,14.74
2019-05-03T06:35:34.476Z,12.55
2019-05-03T06:38:25.219Z,13.10
2019-05-03T06:41:16.312Z,12.53
2019-05-03T06:44:06.860Z,13.47
2019-05-03T06:47:01.103Z,13.51
2019-05-03T06:49:49.612Z,12.93
2019-05-03T06:52:40.301Z,12.76
2019-05-03T06:55:31.128Z,14.49
2019-05-03T06:58:31.251Z,14.06
2019-05-03T07:01:25.743Z,14.18
2019-05-03T07:04:24.574Z,13.46
2019-05-03T07:07:54.714Z,14.01
2019-05-03T07:10:49.300Z,13.08
2019-05-03T07:13:40.181Z,11.75
2019-05-03T07:16:30.984Z,12.58
2019-05-03T07:19:21.476Z,12.63
2019-05-03T07:22:12.047Z,11.13
2019-05-03T07:25:04.623Z,12.46
2019-05-03T07:27:55.729Z,14.37
2019-05-03T07:30:46.738Z,17.16
2019-05-03T07:33:37.669Z,18.83
2019-05-03T07:36:28.834Z,25.63
2019-05-03T07:39:19.641Z,25.20
2019-05-03T07:42:10.789Z,25.25
2019-05-03T07:45:01.745Z,25.25
2019-05-03T07:47:52.869Z,26.48
2019-05-03T07:50:44.718Z,26.96
2019-05-03T07:53:35.633Z,28.70
2019-05-03T07:56:31.427Z,30.66
2019-05-03T07:59:22.260Z,30.76
2019-05-03T08:02:14.485Z,30.36
2019-05-03T08:05:05.580Z,30.47
2019-05-03T08:07:57.321Z,31.31
2019-05-03T08:10:48.129Z,31.97
2019-05-03T08:13:38.899Z,30.92
2019-05-03T08:16:30.229Z,31.94
2019-05-03T08:19:23.588Z,32.35
2019-05-03T08:22:17.253Z,31.68
2019-05-03T08:25:08.109Z,35.28
2019-05-03T08:27:59.133Z,33.74
2019-05-03T08:31:15.261Z,33.29
2019-05-03T08:34:27.881Z,35.06
2019-05-03T08:37:24.494Z,34.84
2019-05-03T08:40:15.804Z,36.51
2019-05-03T08:43:07.872Z,32.94
2019-05-03T08:45:58.715Z,29.05
2019-05-03T08:48:49.734Z,27.47
2019-05-03T08:51:40.858Z,26.05
2019-05-03T08:54:31.617Z,23.88
2019-05-03T08:57:22.678Z,23.82
2019-05-03T09:00:17.729Z,21.05
2019-05-03T09:03:08.820Z,21.86
2019-05-03T09:05:59.997Z,20.11
2019-05-03T09:08:54.360Z,20.11
2019-05-03T09:11:45.354Z,19.24
2019-05-03T09:14:42.645Z,20.91
2019-05-03T09:17:28.899Z,24.29
2019-05-03T09:20:19.782Z,27.35
2019-05-03T09:23:11.681Z,30.16
2019-05-03T09:26:04.556Z,29.28
2019-05-03T09:28:55.731Z,29.16
2019-05-03T09:31:46.999Z,30.45
2019-05-03T09:34:38.106Z,30.42
2019-05-03T09:37:29.319Z,31.70
2019-05-03T09:40:20.336Z,33.26
2019-05-03T09:43:11.372Z,34.93
2019-05-03T09:46:02.265Z,34.42
2019-05-03T09:48:59.830Z,34.15
2019-05-03T09:51:47.584Z,35.80
2019-05-03T09:54:45.336Z,35.36
2019-05-03T09:57:36.859Z,34.76
2019-05-03T10:00:28.044Z,36.56
2019-05-03T10:03:18.506Z,35.86
2019-05-03T10:06:08.905Z,34.05
2019-05-03T10:08:59.141Z,35.88
2019-05-03T10:11:49.537Z,37.27
2019-05-03T10:14:40.017Z,42.08
2019-05-03T10:17:47.422Z,42.23
2019-05-03T10:20:38.051Z,45.25
2019-05-03T10:23:46.720Z,48.86
2019-05-03T10:26:37.061Z,52.41
2019-05-03T10:29:27.584Z,53.47
2019-05-03T10:32:41.129Z,52.19
2019-05-03T10:35:31.646Z,47.25
2019-05-03T10:38:24.962Z,54.41
2019-05-03T10:41:15.305Z,48.04
2019-05-03T10:44:06.158Z,49.42
2019-05-03T10:46:56.924Z,47.84
2019-05-03T10:49:48.368Z,51.18
2019-05-03T10:52:44.681Z,49.40
2019-05-03T10:55:35.765Z,50.96
2019-05-03T10:58:27.402Z,50.62
2019-05-03T11:01:19.802Z,46.46
2019-05-03T11:04:10.496Z,45.16
2019-05-03T11:07:00.911Z,43.19
2019-05-03T11:09:54.960Z,32.80
2019-05-03T11:12:44.607Z,33.65
2019-05-03T11:15:35.713Z,30.35
2019-05-03T11:18:26.896Z,28.50
2019-05-03T11:21:27.965Z,29.30
2019-05-03T11:24:10.614Z,32.45
2019-05-03T11:27:04.472Z,29.88
2019-05-03T11:29:55.747Z,28.53
2019-05-03T11:33:12.019Z,30.47
2019-05-03T11:36:16.312Z,27.26
2019-05-03T11:39:07.991Z,29.73
2019-05-03T11:42:00.178Z,33.75
2019-05-03T11:44:51.027Z,26.45
2019-05-03T11:47:41.992Z,29.44
2019-05-03T11:50:34.737Z,32.16
2019-05-03T11:53:25.996Z,31.27
2019-05-03T11:56:17.023Z,30.88
2019-05-03T11:59:07.688Z,31.95
2019-05-03T12:02:10.907Z,29.88
2019-05-03T12:05:04.876Z,29.30
2019-05-03T12:07:55.825Z,30.03
2019-05-03T12:10:56.286Z,29.58
2019-05-03T12:13:39.912Z,30.13
2019-05-03T12:17:07.699Z,29.97
2019-05-03T12:19:30.177Z,30.32
2019-05-03T12:22:17.781Z,28.57
2019-05-03T12:25:10.471Z,28.49
2019-05-03T12:28:01.571Z,29.06
2019-05-03T12:30:52.620Z,29.09
2019-05-03T12:33:45.978Z,30.09
2019-05-03T12:36:39.154Z,28.88
2019-05-03T12:39:30.838Z,28.47
2019-05-03T12:42:22.202Z,28.43
2019-05-03T12:45:15.176Z,27.37
2019-05-03T12:48:06.003Z,28.46
2019-05-03T12:50:57.220Z,27.48
2019-05-03T12:53:48.605Z,46.59
2019-05-03T12:56:40.468Z,48.49
2019-05-03T12:59:46.507Z,52.13
2019-05-03T13:02:41.467Z,48.23
2019-05-03T13:05:32.395Z,45.28
2019-05-03T13:08:54.876Z,40.12
2019-05-03T13:11:55.347Z,28.07
2019-05-03T13:14:39.656Z,28.54
2019-05-03T13:17:37.057Z,28.83
2019-05-03T13:20:27.876Z,28.20
2019-05-03T13:23:18.892Z,28.20
2019-05-03T13:26:09.844Z,28.57
2019-05-03T13:29:00.994Z,28.68
2019-05-03T13:32:00.039Z,29.58
2019-05-03T13:34:45.091Z,29.63
2019-05-03T13:37:36.091Z,29.78
2019-05-03T13:40:27.212Z,29.05
2019-05-03T13:43:17.551Z,29.26
2019-05-03T13:46:08.032Z,28.92
2019-05-03T13:49:00.090Z,28.10
2019-05-03T13:51:50.605Z,29.17
2019-05-03T13:54:41.273Z,29.35
2019-05-03T13:57:31.806Z,29.34
2019-05-03T14:03:11.169Z,31.15
2019-05-03T14:06:01.593Z,29.57
2019-05-03T14:08:51.986Z,30.17
2019-05-03T14:11:44.659Z,29.24
2019-05-03T14:14:55.831Z,29.46
2019-05-03T14:17:45.301Z,30.46
2019-05-03T14:21:06.841Z,29.68
2019-05-03T14:24:15.606Z,31.43
2019-05-03T14:27:05.648Z,32.05
2019-05-03T14:29:56.100Z,31.08
2019-05-03T14:32:46.762Z,31.02
2019-05-03T14:35:37.151Z,32.44
2019-05-03T14:38:27.483Z,31.71
2019-05-03T14:41:18.141Z,31.50
2019-05-03T14:44:08.984Z,31.45
2019-05-03T14:46:59.384Z,30.89
2019-05-03T14:49:49.732Z,30.65
2019-05-03T14:52:40.179Z,31.95
2019-05-03T14:55:51.168Z,32.03
2019-05-03T14:59:09.411Z,31.43
2019-05-03T15:02:08.893Z,31.83
2019-05-03T15:04:59.215Z,31.10
2019-05-03T15:07:49.444Z,30.98
2019-05-03T15:10:39.753Z,31.62
2019-05-03T15:13:30.141Z,32.19
2019-05-03T15:16:20.340Z,32.93
2019-05-03T15:19:10.677Z,33.26
2019-05-03T15:22:00.810Z,33.57
2019-05-03T15:24:51.205Z,33.81
2019-05-03T15:27:41.767Z,34.08
2019-05-03T15:30:32.362Z,33.46
2019-05-03T15:33:22.915Z,33.76
2019-05-03T15:36:15.356Z,33.83
2019-05-03T15:39:06.397Z,34.08
2019-05-03T15:41:58.799Z,34.22
2019-05-03T15:45:14.612Z,35.05
2019-05-03T15:48:15.185Z,34.85
2019-05-03T15:51:05.616Z,35.89
2019-05-03T15:53:56.322Z,35.95
2019-05-03T15:56:46.884Z,36.55
2019-05-03T15:59:37.427Z,36.46
2019-05-03T16:02:27.861Z,35.78
2019-05-03T16:05:18.402Z,36.47
2019-05-03T16:08:08.841Z,37.01
2019-05-03T16:10:59.052Z,37.71
2019-05-03T16:13:50.260Z,38.23
2019-05-03T16:16:40.494Z,38.72
2019-05-03T16:19:31.008Z,38.52
2019-05-03T16:22:21.652Z,38.75
2019-05-03T16:25:14.266Z,39.54
2019-05-03T16:28:26.782Z,39.90
2019-05-03T16:31:19.734Z,40.49
2019-05-03T16:34:10.332Z,40.28
2019-05-03T16:37:00.663Z,40.34
2019-05-03T16:39:51.310Z,39.95
2019-05-03T16:42:41.779Z,40.31
2019-05-03T16:45:32.500Z,41.27
2019-05-03T16:48:24.543Z,41.81
2019-05-03T16:51:17.134Z,41.38
2019-05-03T16:54:07.023Z,40.77
2019-05-03T16:56:58.581Z,40.14
2019-05-03T16:59:49.156Z,40.68
2019-05-03T17:02:39.392Z,42.66
2019-05-03T17:05:57.746Z,42.66
2019-05-03T17:09:07.811Z,43.50
2019-05-03T17:12:10.379Z,43.62
2019-05-03T17:15:00.808Z,45.33
2019-05-03T17:17:51.342Z,46.37
2019-05-03T17:20:41.900Z,48.57
2019-05-03T17:23:35.436Z,49.50
2019-05-03T17:26:25.777Z,50.14
2019-05-03T17:29:16.385Z,50.23
2019-05-03T17:32:06.959Z,49.93
2019-05-03T17:34:57.437Z,48.79
2019-05-03T17:37:47.959Z,49.49
2019-05-03T17:40:55.820Z,50.07
2019-05-03T17:43:59.132Z,49.85
2019-05-03T17:46:51.412Z,50.30
2019-05-03T17:49:41.944Z,51.99
2019-05-03T17:52:57.505Z,52.73
2019-05-03T17:56:05.338Z,53.05
2019-05-03T17:58:58.938Z,52.05
2019-05-03T18:02:23.353Z,52.30
2019-05-03T18:05:32.218Z,50.25
2019-05-03T18:08:42.314Z,45.34
2019-05-03T18:11:38.624Z,45.34
2019-05-03T18:14:29.261Z,44.53
2019-05-03T18:17:19.667Z,44.98
2019-05-03T18:20:09.900Z,44.68
2019-05-03T18:23:01.274Z,44.68
2019-05-03T18:25:51.518Z,45.55
2019-05-03T18:28:41.968Z,47.11
2019-05-03T18:31:32.483Z,47.32
2019-05-03T18:34:24.940Z,47.76
2019-05-03T18:37:15.388Z,47.85
2019-05-03T18:40:06.948Z,47.27
2019-05-03T18:43:04.528Z,46.99
2019-05-03T18:46:12.063Z,46.99
2019-05-03T18:49:04.882Z,47.03
2019-05-03T18:51:55.493Z,47.21
2019-05-03T18:54:45.827Z,48.07
2019-05-03T18:57:36.382Z,50.05
2019-05-03T19:00:27.304Z,52.15
2019-05-03T19:03:17.969Z,52.44
2019-05-03T19:06:09.757Z,53.37
2019-05-03T19:09:11.406Z,53.37
2019-05-03T19:12:12.782Z,54.20
2019-05-03T19:15:05.192Z,54.67
2019-05-03T19:17:59.760Z,55.70
2019-05-03T19:20:49.834Z,56.87
2019-05-03T19:23:40.342Z,57.01
2019-05-03T19:26:31.832Z,57.97
2019-05-03T19:29:22.400Z,57.97
2019-05-03T19:32:15.055Z,59.01
2019-05-03T19:35:07.141Z,59.83
2019-05-03T19:38:00.164Z,61.56
2019-05-03T19:40:50.980Z,60.93
2019-05-03T19:43:41.408Z,61.33
2019-05-03T19:46:31.632Z,62.10
2019-05-03T19:49:22.410Z,61.75
2019-05-03T19:52:14.641Z,63.57
2019-05-03T19:55:05.707Z,64.99
2019-05-03T19:57:56.198Z,64.99
2019-05-03T20:01:14.855Z,66.11
2019-05-03T20:04:27.854Z,64.63
2019-05-03T20:07:30.223Z,65.54
2019-05-03T20:10:20.428Z,66.63
2019-05-03T20:13:10.567Z,67.71
2019-05-03T20:16:01.195Z,67.89
2019-05-03T20:18:51.670Z,68.78
2019-05-03T20:21:42.259Z,68.78
2019-05-03T20:24:33.527Z,69.47
2019-05-03T20:27:24.467Z,71.99
2019-05-03T20:30:15.260Z,73.42
2019-05-03T20:33:05.736Z,73.42
2019-05-03T20:35:57.172Z,77.57
2019-05-03T20:38:47.763Z,77.57
2019-05-03T20:41:38.328Z,79.20
2019-05-03T20:44:47.433Z,80.24
2019-05-03T20:47:51.070Z,81.30
2019-05-03T20:50:44.607Z,81.31
2019-05-03T20:53:34.678Z,80.84
2019-05-03T20:56:25.901Z,80.65
2019-05-03T20:59:16.255Z,79.04
2019-05-03T21:02:06.554Z,79.52
2019-05-03T21:04:57.073Z,79.36
2019-05-03T21:07:47.634Z,79.28
2019-05-03T21:10:37.933Z,78.98
2019-05-03T21:13:39.224Z,78.40
2019-05-03T21:16:51.768Z,77.55
2019-05-03T21:20:01.236Z,77.96
2019-05-03T21:22:51.707Z,77.26
2019-05-03T21:26:03.611Z,77.01
2019-05-03T21:28:38.545Z,75.60
2019-05-03T21:31:28.917Z,77.73
2019-05-03T21:34:19.390Z,78.60
2019-05-03T21:37:10.048Z,78.19
2019-05-03T21:40:00.272Z,78.13
2019-05-03T21:42:50.452Z,77.77
2019-05-03T21:45:48.901Z,78.16
2019-05-03T21:48:57.161Z,75.89
2019-05-03T21:51:47.380Z,75.89
2019-05-03T21:54:37.945Z,77.29
2019-05-03T21:57:28.689Z,76.88
2019-05-03T22:00:19.661Z,76.04
2019-05-03T22:03:12.093Z,75.05
2019-05-03T22:06:02.427Z,73.93
2019-05-03T22:08:55.376Z,73.91
2019-05-03T22:11:45.525Z,73.30
2019-05-03T22:15:05.097Z,72.29
2019-05-03T22:18:20.231Z,72.20
2019-05-03T22:21:36.950Z,72.34
2019-05-03T22:24:36.590Z,71.64
2019-05-03T22:27:30.351Z,71.14
2019-05-03T22:30:20.646Z,71.62
2019-05-03T22:33:11.115Z,71.89
2019-05-03T22:36:08.653Z,72.19
2019-05-03T22:38:54.490Z,70.92
2019-05-03T22:41:45.320Z,70.92
2019-05-03T22:44:35.768Z,72.52
2019-05-03T22:47:26.443Z,72.13
2019-05-03T22:50:16.903Z,70.10
2019-05-03T22:53:07.037Z,69.21
2019-05-03T22:55:57.503Z,72.24
2019-05-03T22:58:47.940Z,73.42
2019-05-03T23:01:38.120Z,73.91
2019-05-03T23:04:28.364Z,74.26
2019-05-03T23:07:18.823Z,73.72
2019-05-03T23:10:09.318Z,74.12
2019-05-03T23:12:59.920Z,73.90
2019-05-03T23:15:50.916Z,73.32
2019-05-03T23:18:41.527Z,77.37
2019-05-03T23:21:51.505Z,76.48
2019-05-03T23:24:42.147Z,76.38
2019-05-03T23:27:35.342Z,75.70
2019-05-03T23:30:26.198Z,75.18
2019-05-03T23:33:17.123Z,73.83
2019-05-03T23:36:07.674Z,73.24
2019-05-03T23:38:58.379Z,73.24
2019-05-03T23:41:48.716Z,71.89
2019-05-03T23:44:38.866Z,72.10
2019-05-03T23:47:42.604Z,72.12
2019-05-03T23:50:35.235Z,67.61
2019-05-03T23:53:24.970Z,66.58
2019-05-03T23:56:20.056Z,66.84
2019-05-03T23:59:10.211Z,64.11
